aviador You're here:

YTNK Decoded Metar

TENNANT CREEK in _UNIDENTIFIED
Report Time2017-12-15 17:00:00
UTC Time2017-12-15 17:53:04
Flight Rules vfr VFR
Wind280° at 06 kt
W.Decomp.*RWY 29: 5.8 kt HW 1.5 kt LCW
RWY 25: 5.4 kt HW 2.6 kt RCW
W.Rank280° ranks 32
Current wind is below 280° avg. (6.2)
Visibility9999 m
Phenomena:N/A
Clouds:N/A
Expected CloudBase > 3,200 ft AGL from Temp-Dew spread
CeilingNone
Temp25°C (ISA +12)
Dew Point17°C (61% RH)
QNH1008 hPa
Density Alt3,107 ft
Elevation1,237 ft
Report Wrong Elevation
Raw Report
YTNK 151700Z AUTO 28006KT 9999 // NCD 25/17 Q1008=

Extra information for YTNK:More info

Metar Taf Metar & Taf Last 4 Metars F.Rules Stats Wind Profile Meteogram Temp Stats Airport Information Weather charts Add Link Nearby VenuesMetar ALERT Operation Metar Decoded Social comments